Beira, Mozambique

12:39 AM CAT on February 13, 2016 (GMT +0200)
Beira | | Change Station
CLOSE
Current Station
Airport
Location: Beira,
Elevation: 52 ft
Nearby Weather Stations

Elev 52 ft 19.80 °S, 34.91 °E | Updated 39 minutes ago

Partly Cloudy
Partly Cloudy
81 °F
Feels Like 85 °F
N
7
Wind Variable Wind from NE

Today
High -- | Low -- °F
--% Chance of Precip.
Yesterday
High -- | Low -- °F
Precip. -- in
Pressure 29.80 in
Visibility 6.2 miles
Clouds Few 2000 ft
Heat Index 85 °F
Dew Point 73 °F
Humidity 79%
Rainfall 0.00 in
Snow Depth Not available.
5:31 AM 6:17 PM
Waxing Crescent, 24% visible
METAR FQBR 122200Z 05006KT 9999 FEW020 27/23 Q1009
Pressure 29.80 in
Visibility 6.2 miles
Clouds Few 2000 ft
Heat Index 85 °F
Dew Point 73 °F
Humidity 79%
Rainfall 0.00 in
Snow Depth Not available.
5:31 AM 6:17 PM
Waxing Crescent, 24% visible
METAR FQBR 122200Z 05006KT 9999 FEW020 27/23 Q1009

10-Day Weather Forecast

No radar image for this location.
×

Almanac

Astronomy

Feb. 13, 2016 Rise Set
Actual Time
Civil Twilight
Nautical Twilight
Astronomical Twilight
Moon
Length of Visible Light
Length of Day
Tomorrow will be .
, % of the Moon is Illuminated

Today's Extremes

Country Highs Country Lows

Community

WunderPhotos

Upload Photos

1,892,422 photos uploaded!

WunderBlog® & News

Nearby

Air Quality

  Air Quality AQ Index Pollutant
Not available.

Snow Depth

Station Depth Elevation

Earthquake Activity

City Distance Mag. Time & Date
Minimum magnitude displayed is 2.5.

Coastal Water Temperatures

Place Temperature

Stations

Nearby Weather Stations

Station Location Temp. Windchill Dew Point Humidity Wind Precip. Elev Updated Type